Time;durP1;ratioP1;P1;durP2;ratioP2;P2;SDS_P1;SDS_P2;PMS_P1;PMS_P2;Temp;Humidity;BMP_temperature;BMP_pressure;BME280_temperature;BME280_humidity;BME280_pressure;Samples;Min_cycle;Max_cycle;Signal;HPM_P1;HPM_P2
2021/09/02 00:02:26;;;;;;;15.05;8.73;;;;;;;18.96;82.32;100469.48;1946174;74;21034;-57
2021/09/02 00:04:55;;;;;;;21.82;9.23;;;;;;;18.94;82.28;100468.30;1946195;74;21039;-57
2021/09/02 00:07:23;;;;;;;16.20;9.68;;;;;;;18.94;82.04;100482.97;1946207;74;21046;-57
2021/09/02 00:09:52;;;;;;;22.27;14.75;;;;;;;18.94;82.13;100482.97;1946190;74;21062;-59
2021/09/02 00:12:21;;;;;;;26.10;16.87;;;;;;;18.89;82.24;100479.81;1946279;74;21034;-59
2021/09/02 00:14:49;;;;;;;27.48;19.42;;;;;;;18.87;82.02;100477.25;1946237;74;21034;-59
2021/09/02 00:17:19;;;;;;;20.75;13.85;;;;;;;18.83;82.00;100477.14;1942941;73;21183;-59
2021/09/02 00:19:47;;;;;;;19.60;10.60;;;;;;;18.79;82.03;100473.45;1942842;73;21070;-60
2021/09/02 00:22:16;;;;;;;17.52;8.78;;;;;;;18.77;82.04;100478.05;1942868;74;21625;-59
2021/09/02 00:24:45;;;;;;;21.87;10.48;;;;;;;18.73;81.94;100476.11;1942938;74;21082;-59
2021/09/02 00:27:14;;;;;;;14.43;8.10;;;;;;;18.69;81.97;100466.66;1942980;74;21054;-59
2021/09/02 00:29:43;;;;;;;13.25;7.97;;;;;;;18.65;82.08;100465.20;1942931;74;21066;-59
2021/09/02 00:32:12;;;;;;;17.30;9.65;;;;;;;18.61;82.04;100463.71;1943049;74;21062;-59
2021/09/02 00:34:40;;;;;;;12.93;8.28;;;;;;;18.55;82.13;100453.04;1942929;74;21101;-59
2021/09/02 00:37:09;;;;;;;16.62;8.50;;;;;;;18.47;82.28;100457.63;1942858;74;21090;-59
2021/09/02 00:39:38;;;;;;;14.85;8.08;;;;;;;18.38;82.37;100457.50;1942964;74;21074;-59
2021/09/02 00:42:07;;;;;;;15.85;8.33;;;;;;;18.30;82.36;100455.42;1942878;74;21046;-59
2021/09/02 00:44:44;;;;;;;15.25;9.05;;;;;;;18.23;82.53;100451.52;1943092;74;21043;-59
2021/09/02 00:47:14;;;;;;;18.65;9.95;;;;;;;18.14;82.85;100452.56;1942882;74;21093;-59
2021/09/02 00:49:44;;;;;;;15.25;8.10;;;;;;;18.10;82.94;100453.77;1942936;74;21535;-59
2021/09/02 00:52:16;;;;;;;23.10;11.65;;;;;;;18.10;83.00;100452.44;1942918;74;21034;-59
2021/09/02 00:54:46;;;;;;;35.90;20.20;;;;;;;18.10;82.74;100453.77;1942554;74;21003;-58
2021/09/02 00:57:20;;;;;;;30.85;21.70;;;;;;;18.11;82.86;100446.61;1942798;74;21050;-60
2021/09/02 00:59:50;;;;;;;35.43;24.82;;;;;;;18.11;82.88;100444.83;1943150;74;21171;-59
2021/09/02 01:02:29;;;;;;;33.38;21.57;;;;;;;18.10;82.55;100447.59;1942985;74;21473;-59
2021/09/02 01:05:00;;;;;;;34.27;20.80;;;;;;;18.07;82.62;100432.67;1942883;74;21564;-59
2021/09/02 01:07:31;;;;;;;26.45;16.42;;;;;;;18.07;82.74;100446.48;1942280;74;21133;-59
2021/09/02 01:10:01;;;;;;;18.82;10.05;;;;;;;18.03;82.93;100444.53;1942873;74;21019;-59
2021/09/02 01:12:38;;;;;;;18.20;10.15;;;;;;;17.98;82.91;100432.03;1943085;74;21544;-59
2021/09/02 01:15:25;;;;;;;17.80;9.58;;;;;;;17.96;82.91;100420.65;1942867;74;21038;-59
2021/09/02 01:17:59;;;;;;;19.12;9.38;;;;;;;17.91;83.01;100418.84;1942805;73;21074;-58
2021/09/02 01:20:30;;;;;;;15.50;9.53;;;;;;;17.88;83.07;100422.56;1942780;74;21312;-59
2021/09/02 01:23:03;;;;;;;16.93;10.08;;;;;;;17.89;83.04;100416.73;1942943;74;21015;-59
2021/09/02 01:25:43;;;;;;;17.32;8.40;;;;;;;17.89;83.18;100421.61;1943095;74;21002;-59
2021/09/02 01:28:11;;;;;;;17.23;8.55;;;;;;;17.91;83.21;100421.50;1942219;73;21572;-59
2021/09/02 01:30:41;;;;;;;14.43;8.40;;;;;;;17.88;83.03;100408.41;1942942;74;21019;-59
2021/09/02 01:33:11;;;;;;;16.93;8.80;;;;;;;17.83;83.34;100407.86;1942947;74;21094;-59
2021/09/02 01:35:40;;;;;;;16.40;8.43;;;;;;;17.84;83.56;100408.23;1942890;74;21535;-59
2021/09/02 01:38:11;;;;;;;14.30;7.78;;;;;;;17.91;83.63;100394.86;1942934;74;21101;-59
2021/09/02 01:40:50;;;;;;;17.12;9.05;;;;;;;17.97;83.29;100390.89;1942884;74;21014;-59
2021/09/02 01:43:18;;;;;;;14.68;8.45;;;;;;;18.02;83.13;100389.57;1942817;74;21587;-59
2021/09/02 01:45:47;;;;;;;18.02;7.53;;;;;;;18.10;83.12;100383.16;1942981;74;21007;-58
2021/09/02 01:48:16;;;;;;;14.68;9.28;;;;;;;18.15;82.86;100384.16;1942979;74;21031;-59
2021/09/02 01:50:45;;;;;;;19.57;10.00;;;;;;;18.18;82.71;100388.39;1943091;74;21069;-58
2021/09/02 01:53:18;;;;;;;24.35;12.28;;;;;;;18.20;82.68;100395.29;1943181;74;21511;-58
2021/09/02 01:55:50;;;;;;;33.33;16.67;;;;;;;18.22;82.57;100401.84;1943002;74;21011;-59
2021/09/02 01:58:18;;;;;;;18.85;10.95;;;;;;;18.25;82.49;100393.13;1943085;74;21090;-58
2021/09/02 02:00:47;;;;;;;21.25;11.28;;;;;;;18.26;82.38;100383.30;1942904;74;21517;-58
2021/09/02 02:03:16;;;;;;;20.57;10.28;;;;;;;18.26;82.32;100378.85;1942979;73;21034;-58
2021/09/02 02:05:44;;;;;;;18.65;9.70;;;;;;;18.23;82.34;100376.91;1942995;74;21046;-58
2021/09/02 02:08:17;;;;;;;16.87;9.88;;;;;;;18.19;82.49;100388.77;1943089;74;21062;-58
2021/09/02 02:10:46;;;;;;;17.80;9.55;;;;;;;18.11;82.69;100399.53;1943249;74;21027;-58
2021/09/02 02:13:15;;;;;;;22.70;9.75;;;;;;;18.08;82.69;100412.23;1943043;74;21030;-58
2021/09/02 02:15:45;;;;;;;17.92;10.13;;;;;;;18.03;83.00;100406.39;1943172;74;21129;-58
2021/09/02 02:18:14;;;;;;;17.77;9.95;;;;;;;18.04;82.78;100392.13;1939273;73;21090;-58
2021/09/02 02:20:43;;;;;;;21.23;9.45;;;;;;;18.05;82.84;100376.00;1942913;74;21030;-58
2021/09/02 02:23:11;;;;;;;18.02;10.05;;;;;;;18.08;82.75;100373.11;1942878;74;21034;-58
2021/09/02 02:25:40;;;;;;;16.05;8.18;;;;;;;18.09;82.71;100379.28;1943074;74;21022;-59
2021/09/02 02:28:09;;;;;;;12.98;7.62;;;;;;;18.05;82.72;100406.63;1943082;74;21535;-59
2021/09/02 02:30:37;;;;;;;13.95;9.13;;;;;;;17.98;82.96;100417.38;1942914;74;21096;-59
2021/09/02 02:33:06;;;;;;;14.60;9.78;;;;;;;17.95;83.15;100401.66;1942979;74;21067;-59
2021/09/02 02:35:35;;;;;;;31.15;26.05;;;;;;;17.93;83.31;100401.77;1942979;74;21042;-58
2021/09/02 02:38:04;;;;;;;53.30;43.60;;;;;;;17.95;83.32;100394.99;1942963;74;21046;-58
2021/09/02 02:40:32;;;;;;;42.20;36.08;;;;;;;17.97;83.12;100381.56;1943073;74;21046;-59
2021/09/02 02:43:02;;;;;;;51.08;43.80;;;;;;;18.00;82.88;100393.30;1942954;74;21070;-58
2021/09/02 02:45:31;;;;;;;39.53;26.68;;;;;;;18.01;82.75;100398.52;1943053;74;21473;-59
2021/09/02 02:47:59;;;;;;;15.95;9.13;;;;;;;18.01;82.78;100390.52;1942818;73;21102;-59
2021/09/02 02:50:28;;;;;;;19.85;7.60;;;;;;;17.98;82.90;100414.72;1943034;74;21027;-59
2021/09/02 02:52:57;;;;;;;17.82;7.53;;;;;;;17.96;83.09;100430.46;1943065;74;21023;-59
2021/09/02 02:55:26;;;;;;;13.18;8.65;;;;;;;17.93;83.22;100434.22;1943046;74;21101;-58
2021/09/02 02:57:56;;;;;;;11.30;6.17;;;;;;;17.94;83.49;100429.23;1942956;74;21120;-58
2021/09/02 03:00:25;;;;;;;14.25;7.67;;;;;;;17.98;83.79;100409.88;1943013;74;21030;-59
2021/09/02 03:02:53;;;;;;;16.02;9.03;;;;;;;18.07;83.82;100398.53;1942996;74;21110;-58
2021/09/02 03:05:22;;;;;;;16.87;7.55;;;;;;;18.16;83.82;100391.66;1942926;74;21078;-59
2021/09/02 03:07:51;;;;;;;19.80;11.85;;;;;;;18.21;83.64;100392.16;1943187;74;21457;-58
2021/09/02 03:10:20;;;;;;;31.12;23.07;;;;;;;18.26;83.56;100391.30;1942909;74;21106;-58
2021/09/02 03:12:49;;;;;;;49.40;34.30;;;;;;;18.31;83.66;100388.68;1942894;74;21050;-59
2021/09/02 03:15:18;;;;;;;78.12;52.53;;;;;;;18.36;83.69;100397.64;1942944;74;21138;-59
2021/09/02 03:17:47;;;;;;;43.30;32.88;;;;;;;18.38;83.49;100393.03;1943358;73;21042;-58
2021/09/02 03:20:16;;;;;;;55.83;38.38;;;;;;;18.38;83.25;100390.37;1946291;74;21470;-59
2021/09/02 03:22:44;;;;;;;42.78;29.15;;;;;;;18.37;83.06;100399.34;1946343;74;21112;-59
2021/09/02 03:25:13;;;;;;;14.28;8.53;;;;;;;18.37;82.92;100404.68;1946132;74;21038;-59
2021/09/02 03:27:42;;;;;;;12.07;6.45;;;;;;;18.34;82.87;100398.24;1946125;74;21105;-59
2021/09/02 03:30:12;;;;;;;12.00;7.50;;;;;;;18.30;82.83;100395.45;1946342;74;21026;-58
2021/09/02 03:32:41;;;;;;;13.98;8.20;;;;;;;18.24;82.84;100398.57;1946349;74;21046;-58
2021/09/02 03:35:10;;;;;;;14.50;7.72;;;;;;;18.24;82.86;100401.23;1946164;74;21089;-58
2021/09/02 03:37:39;;;;;;;17.60;9.15;;;;;;;18.28;83.24;100394.73;1946363;74;21156;-58
2021/09/02 03:40:09;;;;;;;12.85;6.35;;;;;;;18.31;83.25;100394.02;1946122;74;21023;-59
2021/09/02 03:42:38;;;;;;;11.93;7.33;;;;;;;18.30;83.08;100388.30;1946336;74;21042;-59
2021/09/02 03:45:08;;;;;;;18.95;7.47;;;;;;;18.28;82.99;100389.40;1946182;74;21038;-59
2021/09/02 03:47:37;;;;;;;17.75;8.73;;;;;;;18.24;83.11;100387.91;1946272;74;21039;-58
2021/09/02 03:50:07;;;;;;;13.25;6.75;;;;;;;18.25;83.32;100382.96;1946278;74;21042;-59
2021/09/02 03:52:35;;;;;;;15.58;8.00;;;;;;;18.29;83.21;100374.59;1946109;74;21010;-59
2021/09/02 03:55:05;;;;;;;8.63;6.33;;;;;;;18.34;83.15;100374.25;1946334;74;21035;-58
2021/09/02 03:57:33;;;;;;;12.13;6.50;;;;;;;18.32;83.06;100381.03;1946320;74;21100;-59
2021/09/02 04:00:04;;;;;;;14.65;7.35;;;;;;;18.28;82.93;100381.41;1946222;74;21039;-59
2021/09/02 04:02:32;;;;;;;10.82;7.62;;;;;;;18.22;82.92;100403.17;1946188;74;21082;-59
2021/09/02 04:05:02;;;;;;;13.95;7.70;;;;;;;18.14;83.18;100398.44;1946175;74;21121;-59
2021/09/02 04:07:31;;;;;;;13.28;8.85;;;;;;;18.16;83.63;100398.32;1946322;74;21546;-59
2021/09/02 04:10:00;;;;;;;10.70;6.40;;;;;;;18.16;83.61;100384.51;1946219;74;21571;-59
2021/09/02 04:12:28;;;;;;;12.93;7.22;;;;;;;18.16;83.43;100379.18;1946276;74;21035;-59
2021/09/02 04:14:57;;;;;;;18.80;9.68;;;;;;;18.19;83.71;100387.44;1946240;74;21096;-59
2021/09/02 04:17:26;;;;;;;18.02;10.98;;;;;;;18.25;83.70;100387.80;1946262;74;21034;-60
2021/09/02 04:19:55;;;;;;;11.40;6.47;;;;;;;18.30;83.84;100380.80;1946091;74;21124;-59
2021/09/02 04:22:24;;;;;;;10.90;6.83;;;;;;;18.38;83.64;100373.53;1946179;74;21105;-59
2021/09/02 04:24:52;;;;;;;12.65;7.95;;;;;;;18.47;83.40;100384.33;1946174;74;21128;-59
2021/09/02 04:27:21;;;;;;;11.10;7.03;;;;;;;18.62;83.43;100389.43;1946208;74;21055;-59
2021/09/02 04:29:50;;;;;;;11.65;7.25;;;;;;;18.77;83.19;100386.88;1946510;74;21078;-59
2021/09/02 04:32:18;;;;;;;12.58;8.13;;;;;;;18.94;82.91;100372.72;1946192;74;21026;-59
2021/09/02 04:34:47;;;;;;;8.95;5.28;;;;;;;19.28;82.65;100374.36;1946202;74;21100;-59
2021/09/02 04:37:16;;;;;;;7.85;4.62;;;;;;;19.89;82.32;100383.66;1946310;74;21457;-59
2021/09/02 04:39:45;;;;;;;10.65;5.58;;;;;;;20.40;81.47;100389.56;1946254;74;21039;-59
2021/09/02 04:42:14;;;;;;;11.28;4.90;;;;;;;20.73;78.40;100385.45;1946176;74;21078;-59
2021/09/02 04:44:42;;;;;;;7.15;4.30;;;;;;;20.95;76.69;100380.39;1946071;74;21107;-59
2021/09/02 04:47:11;;;;;;;6.50;4.55;;;;;;;20.74;75.54;100377.30;1946201;74;21023;-59
2021/09/02 04:49:40;;;;;;;8.10;4.55;;;;;;;20.48;74.96;100370.67;1946191;74;21081;-59
2021/09/02 04:52:09;;;;;;;10.58;6.35;;;;;;;20.28;75.82;100385.26;1946286;74;21116;-59
2021/09/02 04:54:37;;;;;;;11.75;6.12;;;;;;;20.02;76.93;100395.00;1946317;74;21100;-59
2021/09/02 04:57:06;;;;;;;9.30;5.75;;;;;;;19.86;77.46;100399.93;1946063;74;21062;-60
2021/09/02 04:59:35;;;;;;;10.35;5.47;;;;;;;19.70;77.26;100402.14;1946275;74;21528;-59
2021/09/02 05:02:05;;;;;;;10.53;6.45;;;;;;;19.57;77.53;100400.51;1946338;74;21051;-59
2021/09/02 05:04:33;;;;;;;10.30;6.50;;;;;;;19.51;78.01;100411.67;1946256;74;21034;-59
2021/09/02 05:07:02;;;;;;;13.25;6.95;;;;;;;19.50;78.35;100410.00;1946298;74;21054;-59
2021/09/02 05:09:31;;;;;;;10.35;5.90;;;;;;;19.46;78.87;100405.89;1946309;74;21042;-59
2021/09/02 05:11:59;;;;;;;12.13;5.75;;;;;;;19.36;78.96;100402.26;1946241;74;21034;-59
2021/09/02 05:14:28;;;;;;;8.75;5.95;;;;;;;19.32;79.35;100399.48;1946280;74;21078;-61
2021/09/02 05:16:57;;;;;;;11.05;6.20;;;;;;;19.33;79.78;100402.03;1946209;74;21034;-59
2021/09/02 05:19:26;;;;;;;12.78;6.42;;;;;;;19.45;79.88;100391.66;1944834;73;20991;-59
2021/09/02 05:21:55;;;;;;;8.53;6.00;;;;;;;20.01;79.75;100387.98;1942893;74;21030;-59
2021/09/02 05:24:23;;;;;;;10.85;6.47;;;;;;;20.22;78.85;100373.77;1942937;74;21116;-59
2021/09/02 05:26:53;;;;;;;8.45;5.25;;;;;;;20.87;78.08;100369.53;1943040;74;21124;-59
2021/09/02 05:29:22;;;;;;;10.85;5.10;;;;;;;21.63;75.27;100368.50;1942861;74;21030;-59
2021/09/02 05:31:51;;;;;;;9.30;4.37;;;;;;;22.35;74.62;100378.40;1942862;74;21175;-59
2021/09/02 05:34:19;;;;;;;7.03;4.47;;;;;;;23.00;71.55;100379.80;1942972;74;21022;-59
2021/09/02 05:36:48;;;;;;;8.38;4.47;;;;;;;23.36;68.62;100377.20;1942853;74;21043;-59
2021/09/02 05:39:16;;;;;;;7.25;4.03;;;;;;;23.93;67.86;100369.37;1942865;74;21023;-59
2021/09/02 05:41:48;;;;;;;7.30;2.80;;;;;;;24.32;64.87;100381.08;1947900;73;21063;-58
2021/09/02 05:44:16;;;;;;;4.53;3.08;;;;;;;24.56;64.60;100390.67;1964800;72;21459;-58
2021/09/02 05:46:45;;;;;;;5.12;2.75;;;;;;;24.85;61.19;100386.28;1964653;73;21517;-58
2021/09/02 05:49:14;;;;;;;4.80;2.00;;;;;;;24.89;61.87;100381.41;1964710;73;21630;-58
2021/09/02 05:51:43;;;;;;;5.37;2.27;;;;;;;24.72;58.18;100376.98;1964710;73;21082;-58
2021/09/02 05:54:12;;;;;;;4.00;3.60;;;;;;;24.22;59.38;100384.72;1964700;73;21474;-58
2021/09/02 05:56:41;;;;;;;6.83;4.12;;;;;;;23.68;60.10;100400.02;1964828;73;21075;-58
2021/09/02 05:59:09;;;;;;;4.42;2.92;;;;;;;23.22;60.90;100404.56;1964684;73;21020;-58
2021/09/02 06:01:38;;;;;;;3.15;2.25;;;;;;;22.80;62.00;100435.41;1964776;73;21044;-58
2021/09/02 06:04:07;;;;;;;3.77;2.10;;;;;;;22.35;62.69;100444.98;1964791;73;21021;-58
2021/09/02 06:06:35;;;;;;;3.47;1.98;;;;;;;21.97;63.50;100462.73;1964770;73;21105;-58
2021/09/02 06:09:04;;;;;;;10.28;5.67;;;;;;;21.59;64.89;100475.09;1964860;73;21083;-59
2021/09/02 06:11:33;;;;;;;15.28;7.45;;;;;;;21.23;66.42;100435.03;1964860;73;21012;-58
2021/09/02 06:14:02;;;;;;;7.97;4.30;;;;;;;20.91;67.33;100409.75;1964688;73;21056;-58
2021/09/02 06:16:31;;;;;;;11.85;2.95;;;;;;;20.66;68.11;100385.16;1964585;73;21144;-58
2021/09/02 06:18:59;;;;;;;7.17;3.70;;;;;;;20.28;69.56;100350.50;1964883;72;21138;-58
2021/09/02 06:21:28;;;;;;;8.85;2.95;;;;;;;19.92;70.53;100343.33;1964640;72;21040;-58
2021/09/02 06:23:57;;;;;;;11.00;2.62;;;;;;;19.58;71.27;100331.42;1964642;73;21094;-57
2021/09/02 06:26:26;;;;;;;4.65;2.77;;;;;;;19.32;72.29;100326.08;1964917;73;21524;-58
2021/09/02 06:28:55;;;;;;;14.10;3.72;;;;;;;19.12;73.45;100333.88;1964505;73;21114;-58
2021/09/02 06:31:24;;;;;;;13.68;3.77;;;;;;;18.98;74.36;100331.48;1964609;73;21110;-58
2021/09/02 06:33:53;;;;;;;9.55;3.12;;;;;;;18.94;74.63;100347.38;1964768;73;21071;-58
2021/09/02 06:36:22;;;;;;;5.33;3.30;;;;;;;18.88;74.92;100350.89;1964838;73;21028;-58
2021/09/02 06:38:52;;;;;;;9.93;4.40;;;;;;;18.89;75.23;100372.61;1964800;73;21121;-58
2021/09/02 06:41:20;;;;;;;7.95;4.35;;;;;;;18.90;75.56;100367.66;1964790;73;21024;-59
2021/09/02 06:43:49;;;;;;;7.40;4.30;;;;;;;18.95;75.91;100371.77;1964787;73;20993;-58
2021/09/02 06:46:18;;;;;;;9.45;4.08;;;;;;;18.94;76.06;100356.72;1964907;72;21044;-58
2021/09/02 06:48:47;;;;;;;10.28;5.40;;;;;;;18.97;76.46;100356.48;1964913;73;21039;-58
2021/09/02 06:51:16;;;;;;;16.12;13.13;;;;;;;19.01;76.40;100360.59;1964813;72;21572;-58
2021/09/02 06:53:45;;;;;;;26.52;22.07;;;;;;;19.09;76.53;100356.83;1964767;73;21000;-59
2021/09/02 06:56:13;;;;;;;31.37;24.82;;;;;;;19.16;77.13;100356.67;1964878;73;21028;-58
2021/09/02 06:58:43;;;;;;;7.50;4.95;;;;;;;19.29;77.17;100349.38;1964903;73;21044;-58
2021/09/02 07:01:13;;;;;;;12.80;7.20;;;;;;;19.42;76.55;100345.68;1964780;72;21118;-58
2021/09/02 07:03:42;;;;;;;13.38;8.08;;;;;;;19.75;76.06;100341.22;1964870;73;21109;-58
2021/09/02 07:06:11;;;;;;;14.28;5.30;;;;;;;20.28;75.17;100327.78;1964874;72;21035;-58
2021/09/02 07:08:40;;;;;;;6.03;3.10;;;;;;;20.78;73.75;100333.22;1964703;73;21016;-58
2021/09/02 07:11:08;;;;;;;6.70;3.47;;;;;;;21.30;72.40;100326.86;1964910;73;21020;-58
2021/09/02 07:13:37;;;;;;;4.17;2.25;;;;;;;21.66;70.99;100327.20;1964988;73;21032;-58
2021/09/02 07:16:06;;;;;;;4.47;2.87;;;;;;;21.89;70.44;100323.70;1964741;73;21118;-58
2021/09/02 07:18:35;;;;;;;4.75;2.42;;;;;;;22.00;69.08;100321.37;1964718;72;21495;-58
2021/09/02 07:21:04;;;;;;;9.33;2.90;;;;;;;21.95;69.19;100324.50;1964696;73;21032;-58
2021/09/02 07:23:32;;;;;;;5.78;3.00;;;;;;;21.87;69.40;100316.31;1965224;73;21056;-58
2021/09/02 07:26:01;;;;;;;6.03;2.90;;;;;;;21.74;69.29;100320.12;1965178;73;21043;-58
2021/09/02 07:28:30;;;;;;;6.08;3.17;;;;;;;21.63;69.91;100320.78;1965090;73;21101;-58
2021/09/02 07:30:58;;;;;;;6.47;3.05;;;;;;;21.57;70.47;100310.97;1965200;73;21056;-59
2021/09/02 07:33:27;;;;;;;7.65;3.67;;;;;;;21.61;70.66;100312.04;1965139;73;21024;-59
2021/09/02 07:35:56;;;;;;;5.53;3.37;;;;;;;21.51;70.29;100314.23;1965433;73;21028;-58
2021/09/02 07:38:24;;;;;;;7.25;3.92;;;;;;;21.48;70.63;100302.95;1965103;73;21136;-58
2021/09/02 07:40:53;;;;;;;5.12;2.77;;;;;;;21.51;70.85;100306.19;1965230;73;21024;-58
2021/09/02 07:43:22;;;;;;;7.85;3.10;;;;;;;21.52;70.83;100307.86;1965248;73;21092;-58
2021/09/02 07:45:51;;;;;;;7.62;2.60;;;;;;;21.53;70.82;100306.05;1965044;73;21094;-58
2021/09/02 07:48:20;;;;;;;4.58;2.62;;;;;;;21.54;70.77;100297.88;1965268;73;21097;-58
2021/09/02 07:50:49;;;;;;;5.45;2.55;;;;;;;21.52;70.47;100297.16;1965256;73;21109;-58
2021/09/02 07:53:18;;;;;;;3.20;2.33;;;;;;;21.54;70.12;100299.22;1965127;73;21056;-58
2021/09/02 07:55:47;;;;;;;15.45;4.40;;;;;;;21.61;69.41;100298.14;1965118;72;21072;-58
2021/09/02 07:58:16;;;;;;;7.42;3.17;;;;;;;21.83;68.76;100306.37;1965213;73;21024;-58
2021/09/02 08:00:45;;;;;;;6.62;2.92;;;;;;;22.07;68.66;100287.63;1964985;73;21016;-58
2021/09/02 08:03:13;;;;;;;7.55;4.20;;;;;;;22.31;68.49;100286.66;1965202;73;21407;-59
2021/09/02 08:05:42;;;;;;;5.70;3.30;;;;;;;22.56;68.12;100277.60;1965103;73;21133;-59
2021/09/02 08:08:16;;;;;;;6.78;3.17;;;;;;;22.81;68.17;100271.17;1965226;73;21547;-58
2021/09/02 08:10:40;;;;;;;6.62;3.20;;;;;;;23.10;68.02;100264.30;1964788;72;21494;-58
2021/09/02 08:13:09;;;;;;;7.85;2.60;;;;;;;23.31;66.77;100262.64;1965025;73;21094;-58
2021/09/02 08:15:38;;;;;;;3.33;2.30;;;;;;;23.61;65.91;100260.53;1965202;73;21439;-58
2021/09/02 08:18:07;;;;;;;5.25;2.67;;;;;;;23.88;65.45;100242.98;1965109;73;21020;-58
2021/09/02 08:20:36;;;;;;;5.62;3.00;;;;;;;24.15;64.69;100246.98;1965185;73;21028;-57
2021/09/02 08:23:05;;;;;;;4.42;2.35;;;;;;;25.54;62.89;100243.83;1964906;72;21068;-59
2021/09/02 08:25:34;;;;;;;4.72;2.30;;;;;;;26.88;60.34;100238.21;1964761;73;21093;-59
2021/09/02 08:28:03;;;;;;;6.12;2.42;;;;;;;27.19;58.05;100232.77;1964759;73;21458;-58
2021/09/02 08:30:31;;;;;;;6.47;2.00;;;;;;;26.94;56.79;100216.70;1964790;73;21137;-58
2021/09/02 08:33:00;;;;;;;2.67;1.70;;;;;;;26.30;54.53;100206.58;1964877;73;21447;-58
2021/09/02 08:35:31;;;;;;;3.65;1.90;;;;;;;25.72;54.81;100201.86;1964882;73;21004;-60
2021/09/02 08:38:03;;;;;;;3.22;1.95;;;;;;;25.80;55.57;100204.03;1965028;73;21040;-58
2021/09/02 08:40:34;;;;;;;3.87;2.10;;;;;;;26.49;55.29;100190.48;1964696;73;21177;-58
2021/09/02 08:43:04;;;;;;;3.60;2.17;;;;;;;26.99;52.17;100188.34;1964743;73;21098;-57
2021/09/02 08:45:33;;;;;;;3.62;2.05;;;;;;;27.00;52.52;100175.14;1964870;73;21074;-57
2021/09/02 08:48:02;;;;;;;4.50;1.92;;;;;;;27.03;53.25;100158.58;1964831;73;21141;-57
2021/09/02 08:50:34;;;;;;;6.80;1.85;;;;;;;27.26;52.68;100165.33;1964713;73;21028;-58
2021/09/02 08:53:05;;;;;;;3.12;1.67;;;;;;;27.69;52.32;100158.83;1964859;73;21095;-57
2021/09/02 08:55:39;;;;;;;3.37;1.50;;;;;;;27.67;48.39;100161.72;1964735;73;21024;-57
2021/09/02 08:58:05;;;;;;;5.20;1.90;;;;;;;27.56;49.56;100166.23;1963791;71;21001;-58
2021/09/02 09:00:33;;;;;;;4.37;1.57;;;;;;;27.60;49.11;100172.11;1964710;73;21052;-58
2021/09/02 09:03:06;;;;;;;3.15;1.40;;;;;;;27.27;48.92;100177.83;1964870;73;21200;-58
2021/09/02 09:05:37;;;;;;;4.20;1.80;;;;;;;27.00;49.49;100173.27;1964668;73;21070;-58
2021/09/02 09:08:10;;;;;;;5.08;1.80;;;;;;;26.77;49.25;100167.37;1964773;73;21090;-58
2021/09/02 09:10:41;;;;;;;4.83;1.90;;;;;;;27.02;49.75;100159.59;1964833;73;21032;-58
2021/09/02 09:13:10;;;;;;;7.20;1.65;;;;;;;27.21;48.01;100156.91;1964677;73;21032;-58
2021/09/02 09:15:45;;;;;;;4.03;1.50;;;;;;;27.36;48.77;100167.27;1964730;73;21008;-58
2021/09/02 09:18:25;;;;;;;3.05;1.50;;;;;;;27.05;49.14;100191.14;1964718;73;21478;-58
2021/09/02 09:21:07;;;;;;;3.08;1.90;;;;;;;26.70;50.34;100196.63;1964666;73;21048;-59
2021/09/02 09:24:07;;;;;;;3.80;2.33;;;;;;;26.18;51.82;100211.02;1964947;73;21071;-58
2021/09/02 09:26:37;;;;;;;5.45;1.87;;;;;;;25.60;53.31;100224.27;1965065;73;21020;-58
2021/09/02 09:29:17;;;;;;;8.80;2.55;;;;;;;24.79;56.22;100267.64;1965202;73;21017;-59
2021/09/02 09:31:47;;;;;;;10.80;2.35;;;;;;;23.88;59.94;100312.88;1965030;73;21522;-58
2021/09/02 09:34:15;;;;;;;8.28;1.72;;;;;;;22.84;61.29;100293.70;1965012;73;21028;-59
2021/09/02 09:36:44;;;;;;;3.08;1.22;;;;;;;22.07;63.03;100293.00;1965132;73;21451;-58
2021/09/02 09:39:17;;;;;;;4.33;1.50;;;;;;;21.58;63.67;100294.43;1965148;73;21498;-58
2021/09/02 09:41:47;;;;;;;3.60;1.30;;;;;;;21.20;64.86;100298.25;1965155;73;21025;-58
2021/09/02 09:44:18;;;;;;;2.77;1.17;;;;;;;20.99;65.13;100290.34;1965189;73;20995;-58
2021/09/02 09:47:09;;;;;;;6.17;1.25;;;;;;;20.77;65.77;100284.73;1964127;72;21012;-59
2021/09/02 09:49:56;;;;;;;2.95;1.20;;;;;;;20.70;66.19;100284.92;1965143;73;21020;-59
2021/09/02 09:52:37;;;;;;;6.42;1.80;;;;;;;20.62;66.75;100283.43;1965020;73;21098;-58
2021/09/02 09:55:17;;;;;;;4.08;1.42;;;;;;;20.78;67.32;100276.20;1965050;73;21087;-58
2021/09/02 09:57:48;;;;;;;6.55;2.02;;;;;;;21.86;66.85;100275.27;1965163;73;21101;-58
2021/09/02 10:00:19;;;;;;;2.22;1.20;;;;;;;22.85;65.28;100262.69;1965146;73;21004;-58
2021/09/02 10:02:51;;;;;;;3.40;1.40;;;;;;;23.12;64.42;100263.14;1965122;73;21040;-58
2021/09/02 10:05:24;;;;;;;2.45;1.35;;;;;;;23.59;63.95;100255.81;1965042;73;21089;-58
2021/09/02 10:07:55;;;;;;;1.45;1.00;;;;;;;24.37;63.09;100263.06;1964996;73;21105;-58
2021/09/02 10:10:23;;;;;;;1.67;0.90;;;;;;;24.98;61.78;100261.94;1965198;73;21459;-59
2021/09/02 10:12:52;;;;;;;1.60;0.93;;;;;;;25.61;60.50;100263.19;1965205;72;21141;-58
2021/09/02 10:15:20;;;;;;;0.85;0.60;;;;;;;26.27;59.25;100274.41;1965248;73;21404;-58
2021/09/02 10:17:51;;;;;;;1.45;0.80;;;;;;;26.90;57.99;100274.82;1965134;73;21016;-58
2021/09/02 10:20:28;;;;;;;1.40;0.80;;;;;;;27.44;55.30;100270.43;1965237;73;21087;-59
2021/09/02 10:23:00;;;;;;;1.40;0.78;;;;;;;27.90;55.31;100272.56;1964331;72;21522;-59
2021/09/02 10:25:39;;;;;;;3.10;0.78;;;;;;;27.67;54.48;100267.19;1965272;73;21086;-58
2021/09/02 10:28:13;;;;;;;2.15;0.70;;;;;;;27.05;54.09;100268.66;1963985;72;21021;-58
2021/09/02 10:30:53;;;;;;;1.07;0.80;;;;;;;26.55;54.92;100283.73;1965034;73;20992;-59
2021/09/02 10:33:43;;;;;;;1.50;0.65;;;;;;;26.08;55.39;100276.49;1965134;72;21688;-58
2021/09/02 10:36:17;;;;;;;4.33;1.32;;;;;;;25.46;56.51;100286.97;1965287;73;21032;-58
2021/09/02 10:38:57;;;;;;;1.30;0.75;;;;;;;24.61;57.60;100287.41;1965266;73;21548;-58
2021/09/02 10:41:41;;;;;;;2.30;0.90;;;;;;;23.93;59.11;100294.08;1965257;73;21839;-58
2021/09/02 10:44:11;;;;;;;5.87;1.30;;;;;;;23.20;60.70;100289.73;1965158;73;21024;-58
2021/09/02 10:46:45;;;;;;;5.95;1.40;;;;;;;22.63;62.30;100280.52;1964498;71;21085;-58
2021/09/02 10:49:27;;;;;;;4.40;1.10;;;;;;;22.23;63.74;100287.87;1965251;73;21035;-58
2021/09/02 10:52:04;;;;;;;2.50;1.15;;;;;;;21.87;64.90;100302.41;1965288;73;21024;-58
2021/09/02 10:54:37;;;;;;;2.87;1.05;;;;;;;22.14;65.47;100276.17;1966960;72;21044;-58
2021/09/02 10:57:14;;;;;;;3.40;1.00;;;;;;;22.60;65.51;100269.59;1965236;73;21541;-57
2021/09/02 10:59:51;;;;;;;1.85;1.07;;;;;;;23.09;64.92;100270.17;1965237;73;21060;-57
2021/09/02 11:02:25;;;;;;;4.22;1.10;;;;;;;23.43;64.10;100270.81;1965181;73;21028;-58
2021/09/02 11:05:02;;;;;;;2.92;0.98;;;;;;;23.51;63.06;100262.81;1965133;73;21530;-57
2021/09/02 11:07:39;;;;;;;1.72;0.90;;;;;;;23.29;63.38;100263.30;1965110;73;21012;-57
2021/09/02 11:10:17;;;;;;;1.95;0.88;;;;;;;22.98;63.52;100262.31;1965260;73;21097;-58
2021/09/02 11:12:47;;;;;;;2.02;0.90;;;;;;;22.72;63.64;100254.99;1965266;73;21532;-57
2021/09/02 11:15:22;;;;;;;3.72;0.93;;;;;;;22.59;63.76;100250.45;1963657;72;21096;-57
2021/09/02 11:17:53;;;;;;;1.50;0.85;;;;;;;22.63;64.04;100257.70;1965249;73;21000;-57
2021/09/02 11:20:25;;;;;;;5.75;1.50;;;;;;;22.59;64.15;100263.03;1964442;72;21466;-58
2021/09/02 11:23:16;;;;;;;8.10;2.70;;;;;;;22.36;64.47;100261.59;1964330;72;21000;-58
2021/09/02 11:25:53;;;;;;;4.33;1.60;;;;;;;22.13;65.37;100266.94;1964670;72;21060;-58
2021/09/02 11:28:23;;;;;;;5.22;2.00;;;;;;;21.91;66.34;100266.78;1964994;73;21490;-58
2021/09/02 11:30:54;;;;;;;4.72;1.32;;;;;;;21.92;66.51;100277.36;1964765;73;21020;-58
2021/09/02 11:33:22;;;;;;;3.75;1.22;;;;;;;22.19;66.52;100270.39;1964702;73;21083;-58
2021/09/02 11:35:59;;;;;;;2.35;1.20;;;;;;;22.31;65.71;100277.27;1964780;73;21064;-58